Time,TemperatureF,DewpointF,PressureIn,WindDirection,WindDirectionDegrees,WindSpeedMPH,WindSpeedGustMPH,Humidity,HourlyPrecipIn,Conditions,Clouds,dailyrainin,SoftwareType,DateUTC
2013-02-28 00:01:00,32.0,30.0,-100.00,West,280,18.0,21.0,93,-99.99,,,-99.99,,2013-02-28 06:01:00,
2013-02-28 00:11:00,32.0,30.0,-100.00,West,280,18.0,21.0,93,-99.99,,,-99.99,,2013-02-28 06:11:00,
2013-02-28 00:22:00,32.0,30.0,-100.00,West,280,18.0,21.0,93,-99.99,,,-99.99,,2013-02-28 06:22:00,
2013-02-28 00:42:00,32.0,30.0,-100.00,WNW,285,19.0,21.0,93,-99.99,,,-99.99,,2013-02-28 06:42:00,
2013-02-28 00:52:00,32.0,30.0,-100.00,West,280,19.0,24.0,93,-99.99,,,-99.99,,2013-02-28 06:52:00,
2013-02-28 01:01:00,32.0,30.0,-100.00,West,280,19.0,24.0,93,-99.99,,,-99.99,,2013-02-28 07:01:00,
2013-02-28 01:11:00,32.0,30.0,-100.00,WNW,290,17.0,21.0,93,-99.99,,,-99.99,,2013-02-28 07:11:00,
2013-02-28 01:21:00,32.0,30.0,-100.00,WNW,285,21.0,23.0,93,-99.99,,,-99.99,,2013-02-28 07:21:00,
2013-02-28 01:32:00,32.0,30.0,-100.00,WNW,285,21.0,23.0,93,-99.99,,,-99.99,,2013-02-28 07:32:00,
2013-02-28 01:41:00,32.0,30.0,-100.00,WNW,285,21.0,23.0,93,-99.99,,,-99.99,,2013-02-28 07:41:00,
2013-02-28 01:52:00,32.0,30.0,-100.00,WNW,295,19.0,24.0,93,-99.99,,,-99.99,,2013-02-28 07:52:00,
2013-02-28 02:01:00,32.0,30.0,-100.00,WNW,295,19.0,24.0,93,-99.99,,,-99.99,,2013-02-28 08:01:00,
2013-02-28 02:11:00,32.0,30.0,-100.00,WNW,295,14.0,18.0,93,-99.99,,,-99.99,,2013-02-28 08:11:00,
2013-02-28 02:22:00,32.0,30.0,-100.00,WNW,295,17.0,21.0,93,-99.99,,,-99.99,,2013-02-28 08:22:00,
2013-02-28 02:32:00,32.0,30.0,-100.00,WNW,295,17.0,21.0,93,-99.99,,,-99.99,,2013-02-28 08:32:00,
2013-02-28 02:42:00,32.0,30.0,-100.00,WNW,300,18.0,21.0,92,-99.99,,,-99.99,,2013-02-28 08:42:00,
2013-02-28 02:53:00,32.0,30.0,-100.00,WNW,300,18.0,21.0,92,-99.99,,,-99.99,,2013-02-28 08:53:00,
2013-02-28 03:03:00,32.0,30.0,-100.00,WNW,300,18.0,21.0,92,-99.99,,,-99.99,,2013-02-28 09:03:00,
2013-02-28 03:11:00,32.0,30.0,-100.00,NW,310,17.0,19.0,92,-99.99,,,-99.99,,2013-02-28 09:11:00,
2013-02-28 03:22:00,32.0,30.0,-100.00,WNW,300,17.0,23.0,92,-99.99,,,-99.99,,2013-02-28 09:22:00,
2013-02-28 03:32:00,32.0,30.0,-100.00,WNW,300,17.0,23.0,92,-99.99,,,-99.99,,2013-02-28 09:32:00,
2013-02-28 03:42:00,32.0,30.0,-100.00,WNW,290,16.0,17.0,92,-99.99,,,-99.99,,2013-02-28 09:42:00,
2013-02-28 03:52:00,32.0,30.0,-100.00,WNW,295,17.0,21.0,92,-99.99,,,-99.99,,2013-02-28 09:52:00,
2013-02-28 04:02:00,32.0,30.0,-100.00,WNW,295,17.0,21.0,92,-99.99,,,-99.99,,2013-02-28 10:02:00,
2013-02-28 04:11:00,32.0,30.0,-100.00,NW,305,14.0,19.0,92,-99.99,,,-99.99,,2013-02-28 10:11:00,
2013-02-28 04:22:00,32.0,30.0,-100.00,NW,305,14.0,19.0,92,-99.99,,,-99.99,,2013-02-28 10:22:00,
2013-02-28 04:32:00,32.0,30.0,-100.00,NW,305,14.0,19.0,92,-99.99,,,-99.99,,2013-02-28 10:32:00,
2013-02-28 04:42:00,32.0,30.0,-100.00,NW,305,16.0,19.0,93,-99.99,,,-99.99,,2013-02-28 10:42:00,
2013-02-28 04:52:00,32.0,30.0,-100.00,WNW,300,16.0,19.0,93,-99.99,,,-99.99,,2013-02-28 10:52:00,
2013-02-28 05:01:00,32.0,30.0,-100.00,WNW,300,16.0,19.0,93,-99.99,,,-99.99,,2013-02-28 11:01:00,
2013-02-28 05:11:00,32.0,30.0,-100.00,WNW,300,14.0,17.0,93,-99.99,,,-99.99,,2013-02-28 11:11:00,
2013-02-28 05:22:00,32.0,30.0,-100.00,WNW,290,14.0,18.0,93,-99.99,,,-99.99,,2013-02-28 11:22:00,
2013-02-28 05:32:00,32.0,30.0,-100.00,WNW,290,14.0,18.0,93,-99.99,,,-99.99,,2013-02-28 11:32:00,
2013-02-28 05:42:00,32.0,30.0,-100.00,WNW,300,14.0,16.0,93,-99.99,,,-99.99,,2013-02-28 11:42:00,
2013-02-28 05:52:00,32.0,30.0,-100.00,WNW,300,14.0,19.0,93,-99.99,,,-99.99,,2013-02-28 11:52:00,
2013-02-28 06:02:00,32.0,30.0,-100.00,WNW,300,14.0,19.0,93,-99.99,,,-99.99,,2013-02-28 12:02:00,
2013-02-28 06:11:00,32.0,30.0,-100.00,NW,310,14.0,18.0,93,-99.99,,,-99.99,,2013-02-28 12:11:00,
2013-02-28 06:22:00,32.0,30.0,-100.00,NW,310,14.0,18.0,93,-99.99,,,-99.99,,2013-02-28 12:22:00,
2013-02-28 06:32:00,32.0,30.0,-100.00,NW,320,14.0,17.0,93,-99.99,,,-99.99,,2013-02-28 12:32:00,
2013-02-28 06:42:00,32.0,30.0,-100.00,NW,310,14.0,17.0,93,-99.99,,,-99.99,,2013-02-28 12:42:00,
2013-02-28 06:52:00,32.0,30.0,-100.00,NW,305,14.0,17.0,93,-99.99,,,-99.99,,2013-02-28 12:52:00,
2013-02-28 07:02:00,32.0,30.0,-100.00,NW,305,14.0,17.0,93,-99.99,,,-99.99,,2013-02-28 13:02:00,
2013-02-28 07:11:00,32.0,30.0,-100.00,NW,310,14.0,16.0,93,-99.99,,,-99.99,,2013-02-28 13:11:00,
2013-02-28 07:22:00,32.0,30.0,-100.00,NW,305,14.0,18.0,93,-99.99,,,-99.99,,2013-02-28 13:22:00,
2013-02-28 07:32:00,32.0,30.0,-100.00,NW,305,14.0,18.0,93,-99.99,,,-99.99,,2013-02-28 13:32:00,
2013-02-28 07:42:00,33.0,31.0,-100.00,WNW,295,14.0,19.0,93,-99.99,,,-99.99,,2013-02-28 13:42:00,
2013-02-28 07:52:00,33.0,31.0,-100.00,NW,305,14.0,17.0,93,-99.99,,,-99.99,,2013-02-28 13:52:00,
2013-02-28 08:01:00,33.0,31.0,-100.00,NW,305,14.0,17.0,93,-99.99,,,-99.99,,2013-02-28 14:01:00,
2013-02-28 08:02:00,33.0,31.0,-100.00,WNW,295,17.0,19.0,93,-99.99,,,-99.99,,2013-02-28 14:02:00,
2013-02-28 08:11:00,33.0,31.0,-100.00,NW,310,14.0,19.0,93,-99.99,,,-99.99,,2013-02-28 14:11:00,
2013-02-28 08:22:00,33.0,31.0,-100.00,WNW,295,14.0,18.0,93,-99.99,,,-99.99,,2013-02-28 14:22:00,
2013-02-28 08:32:00,33.0,31.0,-100.00,WNW,295,14.0,18.0,93,-99.99,,,-99.99,,2013-02-28 14:32:00,
2013-02-28 08:42:00,33.0,31.0,-100.00,WNW,295,17.0,19.0,93,-99.99,,,-99.99,,2013-02-28 14:42:00,
2013-02-28 08:52:00,33.0,31.0,-100.00,WNW,295,17.0,19.0,93,-99.99,,,-99.99,,2013-02-28 14:52:00,
2013-02-28 09:11:00,33.0,31.0,-100.00,WNW,295,14.0,19.0,93,-99.99,,,-99.99,,2013-02-28 15:11:00,
2013-02-28 09:21:00,33.0,31.0,-100.00,WNW,295,14.0,19.0,93,-99.99,,,-99.99,,2013-02-28 15:21:00,
2013-02-28 09:32:00,33.0,31.0,-100.00,WNW,290,14.0,17.0,93,-99.99,,,-99.99,,2013-02-28 15:32:00,
2013-02-28 09:42:00,33.0,31.0,-100.00,WNW,290,14.0,17.0,93,-99.99,,,-99.99,,2013-02-28 15:42:00,
2013-02-28 09:52:00,33.0,31.0,-100.00,WNW,300,14.0,17.0,93,-99.99,,,-99.99,,2013-02-28 15:52:00,
2013-02-28 10:02:00,33.0,31.0,-100.00,WNW,300,14.0,17.0,93,-99.99,,,-99.99,,2013-02-28 16:02:00,
2013-02-28 10:11:00,33.0,31.0,-100.00,WNW,300,14.0,17.0,93,-99.99,,,-99.99,,2013-02-28 16:11:00,
2013-02-28 10:22:00,33.0,31.0,-100.00,NW,305,12.0,14.0,93,-99.99,,,-99.99,,2013-02-28 16:22:00,
2013-02-28 10:32:00,33.0,31.0,-100.00,NW,305,12.0,14.0,93,-99.99,,,-99.99,,2013-02-28 16:32:00,
2013-02-28 10:42:00,33.0,31.0,-100.00,NW,320,14.0,19.0,93,-99.99,,,-99.99,,2013-02-28 16:42:00,
2013-02-28 10:52:00,33.0,31.0,-100.00,NW,320,14.0,19.0,93,-99.99,,,-99.99,,2013-02-28 16:52:00,
2013-02-28 11:02:00,33.0,31.0,-100.00,NW,320,14.0,19.0,93,-99.99,,,-99.99,,2013-02-28 17:02:00,
2013-02-28 11:12:00,33.0,31.0,-100.00,NW,315,17.0,21.0,92,-99.99,,,-99.99,,2013-02-28 17:12:00,
2013-02-28 11:22:00,33.0,31.0,-100.00,NW,315,17.0,21.0,92,-99.99,,,-99.99,,2013-02-28 17:22:00,
2013-02-28 11:32:00,33.0,31.0,-100.00,NW,315,17.0,21.0,92,-99.99,,,-99.99,,2013-02-28 17:32:00,
2013-02-28 11:42:00,34.0,32.0,-100.00,NW,310,17.0,19.0,92,-99.99,,,-99.99,,2013-02-28 17:42:00,
2013-02-28 11:53:00,34.0,32.0,-100.00,NW,315,17.0,18.0,92,-99.99,,,-99.99,,2013-02-28 17:53:00,
2013-02-28 12:02:00,34.0,32.0,-100.00,NW,315,17.0,18.0,92,-99.99,,,-99.99,,2013-02-28 18:02:00,
2013-02-28 12:11:00,34.0,32.0,-100.00,NW,310,16.0,19.0,92,-99.99,,,-99.99,,2013-02-28 18:11:00,
2013-02-28 12:22:00,34.0,32.0,-100.00,NW,305,16.0,19.0,91,-99.99,,,-99.99,,2013-02-28 18:22:00,
2013-02-28 12:32:00,34.0,32.0,-100.00,NW,305,16.0,19.0,91,-99.99,,,-99.99,,2013-02-28 18:32:00,
2013-02-28 12:42:00,34.0,32.0,-100.00,NW,305,16.0,19.0,91,-99.99,,,-99.99,,2013-02-28 18:42:00,
2013-02-28 12:52:00,34.0,32.0,-100.00,NW,305,16.0,18.0,91,-99.99,,,-99.99,,2013-02-28 18:52:00,
2013-02-28 13:02:00,34.0,32.0,-100.00,NW,305,16.0,18.0,91,-99.99,,,-99.99,,2013-02-28 19:02:00,
2013-02-28 13:11:00,34.0,31.0,-100.00,NW,305,14.0,16.0,90,-99.99,,,-99.99,,2013-02-28 19:11:00,
2013-02-28 13:22:00,34.0,31.0,-100.00,NW,305,16.0,18.0,90,-99.99,,,-99.99,,2013-02-28 19:22:00,
2013-02-28 13:32:00,34.0,31.0,-100.00,NW,305,16.0,18.0,90,-99.99,,,-99.99,,2013-02-28 19:32:00,
2013-02-28 13:42:00,34.0,31.0,-100.00,NW,310,14.0,17.0,89,-99.99,,,-99.99,,2013-02-28 19:42:00,
2013-02-28 13:52:00,34.0,31.0,-100.00,NW,305,14.0,18.0,89,-99.99,,,-99.99,,2013-02-28 19:52:00,
2013-02-28 14:01:00,34.0,31.0,-100.00,NW,305,14.0,18.0,89,-99.99,,,-99.99,,2013-02-28 20:01:00,
2013-02-28 14:12:00,34.0,31.0,-100.00,NW,305,14.0,18.0,89,-99.99,,,-99.99,,2013-02-28 20:12:00,
2013-02-28 14:22:00,35.0,32.0,-100.00,NW,310,18.0,21.0,88,-99.99,,,-99.99,,2013-02-28 20:22:00,
2013-02-28 14:32:00,35.0,32.0,-100.00,NW,310,18.0,21.0,88,-99.99,,,-99.99,,2013-02-28 20:32:00,
2013-02-28 14:42:00,35.0,32.0,-100.00,NW,310,18.0,21.0,88,-99.99,,,-99.99,,2013-02-28 20:42:00,
2013-02-28 14:52:00,34.0,31.0,-100.00,WNW,295,14.0,18.0,88,-99.99,,,-99.99,,2013-02-28 20:52:00,
2013-02-28 15:02:00,34.0,31.0,-100.00,WNW,295,14.0,18.0,88,-99.99,,,-99.99,,2013-02-28 21:02:00,
2013-02-28 15:11:00,34.0,31.0,-100.00,WNW,295,14.0,18.0,88,-99.99,,,-99.99,,2013-02-28 21:11:00,
2013-02-28 15:22:00,34.0,32.0,-100.00,WNW,290,17.0,19.0,91,-99.99,,,-99.99,,2013-02-28 21:22:00,
2013-02-28 15:32:00,34.0,32.0,-100.00,WNW,290,17.0,19.0,91,-99.99,,,-99.99,,2013-02-28 21:32:00,
2013-02-28 15:42:00,34.0,32.0,-100.00,WNW,290,17.0,19.0,91,-99.99,,,-99.99,,2013-02-28 21:42:00,
2013-02-28 15:52:00,34.0,32.0,-100.00,NW,305,14.0,17.0,91,-99.99,,,-99.99,,2013-02-28 21:52:00,
2013-02-28 16:01:00,34.0,32.0,-100.00,NW,305,14.0,17.0,91,-99.99,,,-99.99,,2013-02-28 22:01:00,
2013-02-28 16:11:00,34.0,32.0,-100.00,NW,315,14.0,18.0,92,-99.99,,,-99.99,,2013-02-28 22:11:00,
2013-02-28 16:22:00,34.0,32.0,-100.00,NW,315,14.0,18.0,92,-99.99,,,-99.99,,2013-02-28 22:22:00,
2013-02-28 16:32:00,34.0,32.0,-100.00,NW,315,14.0,18.0,92,-99.99,,,-99.99,,2013-02-28 22:32:00,
2013-02-28 16:42:00,34.0,32.0,-100.00,WNW,300,14.0,18.0,92,-99.99,,,-99.99,,2013-02-28 22:42:00,
2013-02-28 16:52:00,33.0,31.0,-100.00,WNW,295,12.0,14.0,93,-99.99,,,-99.99,,2013-02-28 22:52:00,
2013-02-28 17:01:00,33.0,31.0,-100.00,WNW,295,12.0,14.0,93,-99.99,,,-99.99,,2013-02-28 23:01:00,
2013-02-28 17:11:00,33.0,31.0,-100.00,WNW,295,14.0,17.0,93,-99.99,,,-99.99,,2013-02-28 23:11:00,
2013-02-28 17:22:00,33.0,31.0,-100.00,WNW,285,12.0,14.0,93,-99.99,,,-99.99,,2013-02-28 23:22:00,
2013-02-28 17:32:00,33.0,31.0,-100.00,WNW,285,12.0,14.0,93,-99.99,,,-99.99,,2013-02-28 23:32:00,
2013-02-28 17:42:00,33.0,31.0,-100.00,WNW,290,12.0,14.0,93,-99.99,,,-99.99,,2013-02-28 23:42:00,
2013-02-28 17:53:00,33.0,31.0,-100.00,WNW,290,11.0,14.0,93,-99.99,,,-99.99,,2013-02-28 23:53:00,
2013-02-28 18:01:00,33.0,31.0,-100.00,WNW,290,11.0,14.0,93,-99.99,,,-99.99,,2013-03-01 00:01:00,
2013-02-28 18:11:00,33.0,31.0,-100.00,WNW,295,14.0,16.0,93,-99.99,,,-99.99,,2013-03-01 00:11:00,
2013-02-28 18:22:00,33.0,31.0,-100.00,NW,310,12.0,14.0,93,-99.99,,,-99.99,,2013-03-01 00:22:00,
2013-02-28 18:32:00,33.0,31.0,-100.00,NW,310,12.0,14.0,93,-99.99,,,-99.99,,2013-03-01 00:32:00,
2013-02-28 18:42:00,33.0,31.0,-100.00,NW,310,12.0,14.0,93,-99.99,,,-99.99,,2013-03-01 00:42:00,
2013-02-28 18:52:00,33.0,31.0,-100.00,NW,310,14.0,17.0,94,-99.99,,,-99.99,,2013-03-01 00:52:00,
2013-02-28 19:01:00,33.0,31.0,-100.00,NW,310,14.0,17.0,94,-99.99,,,-99.99,,2013-03-01 01:01:00,
2013-02-28 19:11:00,33.0,31.0,-100.00,NW,315,11.0,14.0,94,-99.99,,,-99.99,,2013-03-01 01:11:00,
2013-02-28 19:21:00,33.0,31.0,-100.00,NW,315,14.0,16.0,94,-99.99,,,-99.99,,2013-03-01 01:21:00,
2013-02-28 19:32:00,33.0,31.0,-100.00,NW,325,11.0,14.0,94,-99.99,,,-99.99,,2013-03-01 01:32:00,
2013-02-28 19:42:00,33.0,31.0,-100.00,NW,325,11.0,14.0,94,-99.99,,,-99.99,,2013-03-01 01:42:00,
2013-02-28 19:52:00,33.0,31.0,-100.00,NNW,330,12.0,14.0,94,-99.99,,,-99.99,,2013-03-01 01:52:00,
2013-02-28 20:01:00,33.0,31.0,-100.00,NNW,330,12.0,14.0,94,-99.99,,,-99.99,,2013-03-01 02:01:00,
2013-02-28 20:11:00,32.0,30.0,-100.00,NNW,330,10.0,12.0,94,-99.99,,,-99.99,,2013-03-01 02:11:00,
2013-02-28 20:21:00,32.0,30.0,-100.00,NNW,330,10.0,12.0,94,-99.99,,,-99.99,,2013-03-01 02:21:00,
2013-02-28 20:32:00,32.0,30.0,-100.00,NW,325,8.0,10.0,94,-99.99,,,-99.99,,2013-03-01 02:32:00,
2013-02-28 20:42:00,32.0,30.0,-100.00,WNW,300,9.0,10.0,94,-99.99,,,-99.99,,2013-03-01 02:42:00,
2013-02-28 20:52:00,32.0,30.0,-100.00,NW,315,8.0,9.0,94,-99.99,,,-99.99,,2013-03-01 02:52:00,
2013-02-28 21:02:00,32.0,30.0,-100.00,NW,315,8.0,9.0,94,-99.99,,,-99.99,,2013-03-01 03:02:00,
2013-02-28 21:11:00,32.0,30.0,-100.00,NW,315,11.0,12.0,94,-99.99,,,-99.99,,2013-03-01 03:11:00,
2013-02-28 21:21:00,32.0,30.0,-100.00,NW,315,11.0,12.0,94,-99.99,,,-99.99,,2013-03-01 03:21:00,
2013-02-28 21:32:00,32.0,30.0,-100.00,NW,315,11.0,12.0,94,-99.99,,,-99.99,,2013-03-01 03:32:00,
2013-02-28 21:42:00,32.0,31.0,-100.00,NW,315,11.0,14.0,95,-99.99,,,-99.99,,2013-03-01 03:42:00,
2013-02-28 21:52:00,32.0,31.0,-100.00,NW,315,10.0,12.0,95,-99.99,,,-99.99,,2013-03-01 03:52:00,
2013-02-28 22:01:00,32.0,31.0,-100.00,NW,315,10.0,12.0,95,-99.99,,,-99.99,,2013-03-01 04:01:00,
2013-02-28 22:02:00,32.0,31.0,-100.00,NW,305,9.0,11.0,95,-99.99,,,-99.99,,2013-03-01 04:02:00,
2013-02-28 22:11:00,32.0,31.0,-100.00,NW,310,10.0,12.0,95,-99.99,,,-99.99,,2013-03-01 04:11:00,
2013-02-28 22:21:00,32.0,31.0,-100.00,NW,305,8.0,10.0,95,-99.99,,,-99.99,,2013-03-01 04:21:00,
2013-02-28 22:32:00,32.0,31.0,-100.00,NW,305,8.0,10.0,95,-99.99,,,-99.99,,2013-03-01 04:32:00,
2013-02-28 22:42:00,32.0,31.0,-100.00,NW,305,9.0,11.0,95,-99.99,,,-99.99,,2013-03-01 04:42:00,
2013-02-28 22:52:00,32.0,31.0,-100.00,NW,305,9.0,11.0,95,-99.99,,,-99.99,,2013-03-01 04:52:00,
2013-02-28 23:11:00,32.0,31.0,-100.00,NW,320,9.0,10.0,95,-99.99,,,-99.99,,2013-03-01 05:11:00,
2013-02-28 23:22:00,32.0,31.0,-100.00,NW,320,9.0,10.0,95,-99.99,,,-99.99,,2013-03-01 05:22:00,
2013-02-28 23:32:00,32.0,31.0,-100.00,NW,305,9.0,10.0,95,-99.99,,,-99.99,,2013-03-01 05:32:00,
2013-02-28 23:42:00,32.0,31.0,-100.00,NW,305,9.0,10.0,95,-99.99,,,-99.99,,2013-03-01 05:42:00,
2013-02-28 23:53:00,32.0,31.0,-100.00,NW,305,9.0,10.0,95,-99.99,,,-99.99,,2013-03-01 05:53:00,